sensor_id;sensor_type;location;lat;lon;timestamp;P1;durP1;ratioP1;P2;durP2;ratioP2
7150;SDS011;3617;48.836;9.172;2023-07-29T00:00:29;2.30;;;1.30;;
7150;SDS011;3617;48.836;9.172;2023-07-29T00:02:55;1.73;;;1.40;;
7150;SDS011;3617;48.836;9.172;2023-07-29T00:05:21;1.20;;;1.10;;
7150;SDS011;3617;48.836;9.172;2023-07-29T00:07:47;2.20;;;1.50;;
7150;SDS011;3617;48.836;9.172;2023-07-29T00:10:13;1.60;;;1.40;;
7150;SDS011;3617;48.836;9.172;2023-07-29T00:12:39;1.60;;;1.30;;
7150;SDS011;3617;48.836;9.172;2023-07-29T00:15:05;1.30;;;1.20;;
7150;SDS011;3617;48.836;9.172;2023-07-29T00:17:31;1.93;;;1.33;;
7150;SDS011;3617;48.836;9.172;2023-07-29T00:19:57;1.47;;;1.10;;
7150;SDS011;3617;48.836;9.172;2023-07-29T00:22:23;1.40;;;1.30;;
7150;SDS011;3617;48.836;9.172;2023-07-29T00:24:52;1.10;;;1.00;;
7150;SDS011;3617;48.836;9.172;2023-07-29T00:27:25;1.73;;;1.37;;
7150;SDS011;3617;48.836;9.172;2023-07-29T00:29:51;1.47;;;1.37;;
7150;SDS011;3617;48.836;9.172;2023-07-29T00:32:17;1.57;;;1.30;;
7150;SDS011;3617;48.836;9.172;2023-07-29T00:34:43;1.70;;;1.20;;
7150;SDS011;3617;48.836;9.172;2023-07-29T00:37:09;1.90;;;1.30;;
7150;SDS011;3617;48.836;9.172;2023-07-29T00:39:35;1.67;;;1.50;;
7150;SDS011;3617;48.836;9.172;2023-07-29T00:42:02;1.47;;;1.30;;
7150;SDS011;3617;48.836;9.172;2023-07-29T00:44:28;2.27;;;1.70;;
7150;SDS011;3617;48.836;9.172;2023-07-29T00:46:56;1.70;;;1.37;;
7150;SDS011;3617;48.836;9.172;2023-07-29T00:49:22;3.70;;;1.63;;
7150;SDS011;3617;48.836;9.172;2023-07-29T00:51:48;2.03;;;1.60;;
7150;SDS011;3617;48.836;9.172;2023-07-29T00:54:14;1.90;;;1.70;;
7150;SDS011;3617;48.836;9.172;2023-07-29T00:56:41;1.90;;;1.70;;
7150;SDS011;3617;48.836;9.172;2023-07-29T00:59:07;1.43;;;1.33;;
7150;SDS011;3617;48.836;9.172;2023-07-29T01:01:33;2.28;;;1.83;;
7150;SDS011;3617;48.836;9.172;2023-07-29T01:03:59;4.03;;;1.50;;
7150;SDS011;3617;48.836;9.172;2023-07-29T01:06:41;1.77;;;1.57;;
7150;SDS011;3617;48.836;9.172;2023-07-29T01:09:18;1.67;;;1.43;;
7150;SDS011;3617;48.836;9.172;2023-07-29T01:11:52;1.98;;;1.60;;
7150;SDS011;3617;48.836;9.172;2023-07-29T01:14:40;1.30;;;1.20;;
7150;SDS011;3617;48.836;9.172;2023-07-29T01:17:08;2.13;;;1.57;;
7150;SDS011;3617;48.836;9.172;2023-07-29T01:22:01;2.17;;;1.37;;
7150;SDS011;3617;48.836;9.172;2023-07-29T01:24:28;2.13;;;1.37;;
7150;SDS011;3617;48.836;9.172;2023-07-29T01:26:54;2.13;;;1.40;;
7150;SDS011;3617;48.836;9.172;2023-07-29T01:29:20;1.87;;;1.60;;
7150;SDS011;3617;48.836;9.172;2023-07-29T01:31:46;1.77;;;1.38;;
7150;SDS011;3617;48.836;9.172;2023-07-29T01:34:17;2.33;;;1.63;;
7150;SDS011;3617;48.836;9.172;2023-07-29T01:36:48;1.70;;;1.37;;
7150;SDS011;3617;48.836;9.172;2023-07-29T01:39:16;1.88;;;1.63;;
7150;SDS011;3617;48.836;9.172;2023-07-29T01:41:43;1.33;;;1.23;;
7150;SDS011;3617;48.836;9.172;2023-07-29T01:44:09;2.20;;;1.70;;
7150;SDS011;3617;48.836;9.172;2023-07-29T01:46:36;3.00;;;1.80;;
7150;SDS011;3617;48.836;9.172;2023-07-29T01:49:02;2.30;;;1.43;;
7150;SDS011;3617;48.836;9.172;2023-07-29T01:51:28;3.17;;;1.40;;
7150;SDS011;3617;48.836;9.172;2023-07-29T01:53:54;1.90;;;1.58;;
7150;SDS011;3617;48.836;9.172;2023-07-29T01:56:20;2.13;;;1.47;;
7150;SDS011;3617;48.836;9.172;2023-07-29T01:58:46;2.83;;;1.90;;
7150;SDS011;3617;48.836;9.172;2023-07-29T02:01:12;2.17;;;1.52;;
7150;SDS011;3617;48.836;9.172;2023-07-29T02:03:38;1.92;;;1.50;;
7150;SDS011;3617;48.836;9.172;2023-07-29T02:06:04;2.07;;;1.30;;
7150;SDS011;3617;48.836;9.172;2023-07-29T02:08:30;2.28;;;1.75;;
7150;SDS011;3617;48.836;9.172;2023-07-29T02:10:56;1.50;;;1.30;;
7150;SDS011;3617;48.836;9.172;2023-07-29T02:13:22;2.03;;;1.33;;
7150;SDS011;3617;48.836;9.172;2023-07-29T02:15:48;2.38;;;1.50;;
7150;SDS011;3617;48.836;9.172;2023-07-29T02:18:14;1.88;;;1.50;;
7150;SDS011;3617;48.836;9.172;2023-07-29T02:20:40;1.80;;;1.30;;
7150;SDS011;3617;48.836;9.172;2023-07-29T02:23:13;1.80;;;1.48;;
7150;SDS011;3617;48.836;9.172;2023-07-29T02:25:39;1.93;;;1.40;;
7150;SDS011;3617;48.836;9.172;2023-07-29T02:28:05;1.40;;;1.13;;
7150;SDS011;3617;48.836;9.172;2023-07-29T02:30:31;2.33;;;1.50;;
7150;SDS011;3617;48.836;9.172;2023-07-29T02:32:57;1.90;;;1.30;;
7150;SDS011;3617;48.836;9.172;2023-07-29T02:35:26;1.45;;;1.23;;
7150;SDS011;3617;48.836;9.172;2023-07-29T02:37:52;1.33;;;1.20;;
7150;SDS011;3617;48.836;9.172;2023-07-29T02:40:18;1.48;;;1.23;;
7150;SDS011;3617;48.836;9.172;2023-07-29T02:42:45;3.80;;;1.17;;
7150;SDS011;3617;48.836;9.172;2023-07-29T02:45:11;1.63;;;1.33;;
7150;SDS011;3617;48.836;9.172;2023-07-29T02:47:37;1.60;;;1.40;;
7150;SDS011;3617;48.836;9.172;2023-07-29T02:50:03;1.30;;;1.20;;
7150;SDS011;3617;48.836;9.172;2023-07-29T02:52:30;1.50;;;1.10;;
7150;SDS011;3617;48.836;9.172;2023-07-29T02:54:56;1.60;;;1.10;;
7150;SDS011;3617;48.836;9.172;2023-07-29T02:57:22;2.07;;;1.33;;
7150;SDS011;3617;48.836;9.172;2023-07-29T02:59:48;1.17;;;1.00;;
7150;SDS011;3617;48.836;9.172;2023-07-29T03:02:14;2.10;;;1.40;;
7150;SDS011;3617;48.836;9.172;2023-07-29T03:04:41;1.77;;;1.67;;
7150;SDS011;3617;48.836;9.172;2023-07-29T03:07:07;2.47;;;1.50;;
7150;SDS011;3617;48.836;9.172;2023-07-29T03:09:33;1.50;;;1.00;;
7150;SDS011;3617;48.836;9.172;2023-07-29T03:11:59;3.13;;;1.40;;
7150;SDS011;3617;48.836;9.172;2023-07-29T03:14:25;2.20;;;1.30;;
7150;SDS011;3617;48.836;9.172;2023-07-29T03:16:52;1.38;;;1.20;;
7150;SDS011;3617;48.836;9.172;2023-07-29T03:19:18;1.83;;;1.40;;
7150;SDS011;3617;48.836;9.172;2023-07-29T03:21:44;1.73;;;1.37;;
7150;SDS011;3617;48.836;9.172;2023-07-29T03:24:10;1.57;;;1.30;;
7150;SDS011;3617;48.836;9.172;2023-07-29T03:26:37;1.50;;;1.40;;
7150;SDS011;3617;48.836;9.172;2023-07-29T03:29:02;1.67;;;1.50;;
7150;SDS011;3617;48.836;9.172;2023-07-29T03:31:28;2.57;;;1.43;;
7150;SDS011;3617;48.836;9.172;2023-07-29T03:33:54;1.70;;;1.50;;
7150;SDS011;3617;48.836;9.172;2023-07-29T03:36:21;3.47;;;1.43;;
7150;SDS011;3617;48.836;9.172;2023-07-29T03:38:47;1.70;;;1.27;;
7150;SDS011;3617;48.836;9.172;2023-07-29T03:41:13;1.30;;;1.13;;
7150;SDS011;3617;48.836;9.172;2023-07-29T03:43:39;1.40;;;1.10;;
7150;SDS011;3617;48.836;9.172;2023-07-29T03:46:05;2.83;;;1.23;;
7150;SDS011;3617;48.836;9.172;2023-07-29T03:48:31;1.53;;;1.20;;
7150;SDS011;3617;48.836;9.172;2023-07-29T03:50:57;1.30;;;1.20;;
7150;SDS011;3617;48.836;9.172;2023-07-29T03:53:23;1.63;;;1.43;;
7150;SDS011;3617;48.836;9.172;2023-07-29T03:55:49;1.80;;;1.07;;
7150;SDS011;3617;48.836;9.172;2023-07-29T03:58:15;2.67;;;1.60;;
7150;SDS011;3617;48.836;9.172;2023-07-29T04:00:41;2.10;;;1.60;;
7150;SDS011;3617;48.836;9.172;2023-07-29T04:03:07;1.40;;;1.30;;
7150;SDS011;3617;48.836;9.172;2023-07-29T04:05:33;2.33;;;1.67;;
7150;SDS011;3617;48.836;9.172;2023-07-29T04:08:00;1.70;;;1.27;;
7150;SDS011;3617;48.836;9.172;2023-07-29T04:10:26;1.55;;;1.40;;
7150;SDS011;3617;48.836;9.172;2023-07-29T04:12:52;1.52;;;1.40;;
7150;SDS011;3617;48.836;9.172;2023-07-29T04:15:18;2.58;;;1.38;;
7150;SDS011;3617;48.836;9.172;2023-07-29T04:17:44;1.77;;;1.23;;
7150;SDS011;3617;48.836;9.172;2023-07-29T04:20:10;1.63;;;1.37;;
7150;SDS011;3617;48.836;9.172;2023-07-29T04:22:36;1.70;;;1.23;;
7150;SDS011;3617;48.836;9.172;2023-07-29T04:25:02;1.63;;;1.30;;
7150;SDS011;3617;48.836;9.172;2023-07-29T04:27:29;3.37;;;1.43;;
7150;SDS011;3617;48.836;9.172;2023-07-29T04:29:55;2.00;;;1.30;;
7150;SDS011;3617;48.836;9.172;2023-07-29T04:32:21;2.25;;;1.55;;
7150;SDS011;3617;48.836;9.172;2023-07-29T04:34:47;1.53;;;1.00;;
7150;SDS011;3617;48.836;9.172;2023-07-29T04:37:13;2.03;;;1.50;;
7150;SDS011;3617;48.836;9.172;2023-07-29T04:39:39;1.40;;;1.30;;
7150;SDS011;3617;48.836;9.172;2023-07-29T04:42:05;1.50;;;1.23;;
7150;SDS011;3617;48.836;9.172;2023-07-29T04:44:31;1.70;;;1.40;;
7150;SDS011;3617;48.836;9.172;2023-07-29T04:46:57;2.03;;;1.67;;
7150;SDS011;3617;48.836;9.172;2023-07-29T04:49:23;1.53;;;1.30;;
7150;SDS011;3617;48.836;9.172;2023-07-29T04:51:49;2.20;;;1.60;;
7150;SDS011;3617;48.836;9.172;2023-07-29T04:54:15;2.03;;;1.63;;
7150;SDS011;3617;48.836;9.172;2023-07-29T04:56:41;5.53;;;1.30;;
7150;SDS011;3617;48.836;9.172;2023-07-29T04:59:07;2.97;;;1.37;;
7150;SDS011;3617;48.836;9.172;2023-07-29T05:01:33;3.20;;;1.80;;
7150;SDS011;3617;48.836;9.172;2023-07-29T05:03:59;1.30;;;1.20;;
7150;SDS011;3617;48.836;9.172;2023-07-29T05:06:25;2.00;;;1.42;;
7150;SDS011;3617;48.836;9.172;2023-07-29T05:08:51;1.40;;;1.23;;
7150;SDS011;3617;48.836;9.172;2023-07-29T05:11:17;2.03;;;1.53;;
7150;SDS011;3617;48.836;9.172;2023-07-29T05:13:43;2.00;;;1.50;;
7150;SDS011;3617;48.836;9.172;2023-07-29T05:16:09;2.57;;;1.70;;
7150;SDS011;3617;48.836;9.172;2023-07-29T05:18:35;2.47;;;1.95;;
7150;SDS011;3617;48.836;9.172;2023-07-29T05:21:01;2.43;;;1.60;;
7150;SDS011;3617;48.836;9.172;2023-07-29T05:23:27;2.35;;;1.58;;
7150;SDS011;3617;48.836;9.172;2023-07-29T05:25:53;1.70;;;1.20;;
7150;SDS011;3617;48.836;9.172;2023-07-29T05:28:19;2.20;;;1.80;;
7150;SDS011;3617;48.836;9.172;2023-07-29T05:30:45;2.35;;;1.60;;
7150;SDS011;3617;48.836;9.172;2023-07-29T05:33:11;2.53;;;1.45;;
7150;SDS011;3617;48.836;9.172;2023-07-29T05:35:38;1.83;;;1.25;;
7150;SDS011;3617;48.836;9.172;2023-07-29T05:38:04;1.42;;;1.33;;
7150;SDS011;3617;48.836;9.172;2023-07-29T05:40:33;2.03;;;1.63;;
7150;SDS011;3617;48.836;9.172;2023-07-29T05:42:59;2.25;;;1.45;;
7150;SDS011;3617;48.836;9.172;2023-07-29T05:45:25;2.13;;;1.67;;
7150;SDS011;3617;48.836;9.172;2023-07-29T05:47:51;1.92;;;1.58;;
7150;SDS011;3617;48.836;9.172;2023-07-29T05:50:17;2.40;;;1.80;;
7150;SDS011;3617;48.836;9.172;2023-07-29T05:52:43;1.73;;;1.35;;
7150;SDS011;3617;48.836;9.172;2023-07-29T05:55:09;1.95;;;1.33;;
7150;SDS011;3617;48.836;9.172;2023-07-29T05:57:35;1.75;;;1.50;;
7150;SDS011;3617;48.836;9.172;2023-07-29T06:00:01;1.70;;;1.50;;
7150;SDS011;3617;48.836;9.172;2023-07-29T06:02:27;2.40;;;1.50;;
7150;SDS011;3617;48.836;9.172;2023-07-29T06:04:53;2.20;;;1.70;;
7150;SDS011;3617;48.836;9.172;2023-07-29T06:07:19;2.30;;;1.67;;
7150;SDS011;3617;48.836;9.172;2023-07-29T06:09:45;2.00;;;1.45;;
7150;SDS011;3617;48.836;9.172;2023-07-29T06:12:11;2.10;;;1.30;;
7150;SDS011;3617;48.836;9.172;2023-07-29T06:14:37;2.40;;;1.58;;
7150;SDS011;3617;48.836;9.172;2023-07-29T06:17:04;2.50;;;1.75;;
7150;SDS011;3617;48.836;9.172;2023-07-29T06:19:31;2.30;;;1.52;;
7150;SDS011;3617;48.836;9.172;2023-07-29T06:21:57;2.10;;;1.50;;
7150;SDS011;3617;48.836;9.172;2023-07-29T06:24:24;2.15;;;1.50;;
7150;SDS011;3617;48.836;9.172;2023-07-29T06:26:50;2.05;;;1.40;;
7150;SDS011;3617;48.836;9.172;2023-07-29T06:29:16;1.40;;;1.17;;
7150;SDS011;3617;48.836;9.172;2023-07-29T06:31:42;1.92;;;1.63;;
7150;SDS011;3617;48.836;9.172;2023-07-29T06:34:08;2.17;;;1.40;;
7150;SDS011;3617;48.836;9.172;2023-07-29T06:36:34;2.03;;;1.50;;
7150;SDS011;3617;48.836;9.172;2023-07-29T06:39:00;1.55;;;1.30;;
7150;SDS011;3617;48.836;9.172;2023-07-29T06:41:26;1.83;;;1.30;;
7150;SDS011;3617;48.836;9.172;2023-07-29T06:43:52;1.73;;;1.23;;
7150;SDS011;3617;48.836;9.172;2023-07-29T06:46:18;2.38;;;1.40;;
7150;SDS011;3617;48.836;9.172;2023-07-29T06:48:44;2.78;;;1.40;;
7150;SDS011;3617;48.836;9.172;2023-07-29T06:51:10;1.20;;;1.10;;
7150;SDS011;3617;48.836;9.172;2023-07-29T06:53:36;1.83;;;1.55;;
7150;SDS011;3617;48.836;9.172;2023-07-29T06:56:02;2.33;;;1.50;;
7150;SDS011;3617;48.836;9.172;2023-07-29T06:58:28;3.20;;;1.63;;
7150;SDS011;3617;48.836;9.172;2023-07-29T07:00:54;2.53;;;1.20;;
7150;SDS011;3617;48.836;9.172;2023-07-29T07:03:20;1.52;;;1.30;;
7150;SDS011;3617;48.836;9.172;2023-07-29T07:05:46;1.95;;;1.40;;
7150;SDS011;3617;48.836;9.172;2023-07-29T07:08:12;2.35;;;1.50;;
7150;SDS011;3617;48.836;9.172;2023-07-29T07:10:38;1.77;;;1.35;;
7150;SDS011;3617;48.836;9.172;2023-07-29T07:13:04;1.70;;;1.55;;
7150;SDS011;3617;48.836;9.172;2023-07-29T07:15:30;1.65;;;1.23;;
7150;SDS011;3617;48.836;9.172;2023-07-29T07:17:56;1.50;;;1.40;;
7150;SDS011;3617;48.836;9.172;2023-07-29T07:20:22;1.65;;;1.20;;
7150;SDS011;3617;48.836;9.172;2023-07-29T07:22:48;1.30;;;1.20;;
7150;SDS011;3617;48.836;9.172;2023-07-29T07:25:14;1.20;;;1.08;;
7150;SDS011;3617;48.836;9.172;2023-07-29T07:27:40;2.03;;;0.98;;
7150;SDS011;3617;48.836;9.172;2023-07-29T07:30:07;2.95;;;1.13;;
7150;SDS011;3617;48.836;9.172;2023-07-29T07:32:33;1.95;;;1.30;;
7150;SDS011;3617;48.836;9.172;2023-07-29T07:34:59;1.75;;;1.33;;
7150;SDS011;3617;48.836;9.172;2023-07-29T07:37:25;2.30;;;1.02;;
7150;SDS011;3617;48.836;9.172;2023-07-29T07:39:51;1.25;;;1.15;;
7150;SDS011;3617;48.836;9.172;2023-07-29T07:42:17;1.17;;;0.98;;
7150;SDS011;3617;48.836;9.172;2023-07-29T07:44:43;1.85;;;1.65;;
7150;SDS011;3617;48.836;9.172;2023-07-29T07:47:09;1.55;;;1.13;;
7150;SDS011;3617;48.836;9.172;2023-07-29T07:49:35;1.65;;;1.33;;
7150;SDS011;3617;48.836;9.172;2023-07-29T07:52:01;1.58;;;0.90;;
7150;SDS011;3617;48.836;9.172;2023-07-29T07:54:27;1.38;;;1.20;;
7150;SDS011;3617;48.836;9.172;2023-07-29T07:56:53;1.52;;;1.20;;
7150;SDS011;3617;48.836;9.172;2023-07-29T07:59:19;1.30;;;1.20;;
7150;SDS011;3617;48.836;9.172;2023-07-29T08:01:45;1.67;;;1.23;;
7150;SDS011;3617;48.836;9.172;2023-07-29T08:04:11;2.65;;;1.10;;
7150;SDS011;3617;48.836;9.172;2023-07-29T08:06:37;1.25;;;0.98;;
7150;SDS011;3617;48.836;9.172;2023-07-29T08:09:03;1.38;;;1.17;;
7150;SDS011;3617;48.836;9.172;2023-07-29T08:11:30;3.22;;;1.58;;
7150;SDS011;3617;48.836;9.172;2023-07-29T08:13:56;0.95;;;0.93;;
7150;SDS011;3617;48.836;9.172;2023-07-29T08:16:22;1.33;;;1.02;;
7150;SDS011;3617;48.836;9.172;2023-07-29T08:18:48;0.93;;;0.82;;
7150;SDS011;3617;48.836;9.172;2023-07-29T08:21:13;0.70;;;0.70;;
7150;SDS011;3617;48.836;9.172;2023-07-29T08:23:39;0.80;;;0.75;;
7150;SDS011;3617;48.836;9.172;2023-07-29T08:26:06;1.35;;;1.00;;
7150;SDS011;3617;48.836;9.172;2023-07-29T08:28:33;0.80;;;0.70;;
7150;SDS011;3617;48.836;9.172;2023-07-29T08:30:59;0.95;;;0.80;;
7150;SDS011;3617;48.836;9.172;2023-07-29T08:33:25;0.70;;;0.68;;
7150;SDS011;3617;48.836;9.172;2023-07-29T08:35:51;1.02;;;0.93;;
7150;SDS011;3617;48.836;9.172;2023-07-29T08:38:18;1.25;;;0.80;;
7150;SDS011;3617;48.836;9.172;2023-07-29T08:43:13;3.20;;;1.27;;
7150;SDS011;3617;48.836;9.172;2023-07-29T08:45:39;0.98;;;0.63;;
7150;SDS011;3617;48.836;9.172;2023-07-29T08:48:10;1.00;;;0.88;;
7150;SDS011;3617;48.836;9.172;2023-07-29T08:50:36;1.50;;;0.65;;
7150;SDS011;3617;48.836;9.172;2023-07-29T08:53:05;1.27;;;1.00;;
7150;SDS011;3617;48.836;9.172;2023-07-29T08:55:31;1.05;;;0.80;;
7150;SDS011;3617;48.836;9.172;2023-07-29T08:57:58;0.75;;;0.60;;
7150;SDS011;3617;48.836;9.172;2023-07-29T09:00:26;2.80;;;0.60;;
7150;SDS011;3617;48.836;9.172;2023-07-29T09:02:53;4.45;;;1.15;;
7150;SDS011;3617;48.836;9.172;2023-07-29T09:05:20;0.63;;;0.60;;
7150;SDS011;3617;48.836;9.172;2023-07-29T09:07:46;1.30;;;0.70;;
7150;SDS011;3617;48.836;9.172;2023-07-29T09:10:13;2.13;;;1.08;;
7150;SDS011;3617;48.836;9.172;2023-07-29T09:12:40;1.08;;;1.00;;
7150;SDS011;3617;48.836;9.172;2023-07-29T09:15:06;1.40;;;0.93;;
7150;SDS011;3617;48.836;9.172;2023-07-29T09:17:32;1.10;;;0.90;;
7150;SDS011;3617;48.836;9.172;2023-07-29T09:19:58;1.30;;;1.00;;
7150;SDS011;3617;48.836;9.172;2023-07-29T09:22:25;0.63;;;0.63;;
7150;SDS011;3617;48.836;9.172;2023-07-29T09:24:52;1.00;;;0.80;;
7150;SDS011;3617;48.836;9.172;2023-07-29T09:27:25;0.70;;;0.60;;
7150;SDS011;3617;48.836;9.172;2023-07-29T09:29:52;0.85;;;0.65;;
7150;SDS011;3617;48.836;9.172;2023-07-29T09:32:19;1.30;;;0.80;;
7150;SDS011;3617;48.836;9.172;2023-07-29T09:34:45;1.58;;;0.70;;
7150;SDS011;3617;48.836;9.172;2023-07-29T09:37:20;1.40;;;0.88;;
7150;SDS011;3617;48.836;9.172;2023-07-29T09:39:47;0.88;;;0.70;;
7150;SDS011;3617;48.836;9.172;2023-07-29T09:42:20;1.52;;;0.93;;
7150;SDS011;3617;48.836;9.172;2023-07-29T09:44:48;0.95;;;0.80;;
7150;SDS011;3617;48.836;9.172;2023-07-29T09:47:20;0.90;;;0.80;;
7150;SDS011;3617;48.836;9.172;2023-07-29T09:49:47;0.93;;;0.82;;
7150;SDS011;3617;48.836;9.172;2023-07-29T09:52:14;0.65;;;0.65;;
7150;SDS011;3617;48.836;9.172;2023-07-29T09:54:41;0.75;;;0.70;;
7150;SDS011;3617;48.836;9.172;2023-07-29T09:57:08;1.30;;;0.90;;
7150;SDS011;3617;48.836;9.172;2023-07-29T09:59:34;1.10;;;1.00;;
7150;SDS011;3617;48.836;9.172;2023-07-29T10:02:00;1.05;;;0.95;;
7150;SDS011;3617;48.836;9.172;2023-07-29T10:04:26;1.05;;;0.80;;
7150;SDS011;3617;48.836;9.172;2023-07-29T10:06:52;1.02;;;0.93;;
7150;SDS011;3617;48.836;9.172;2023-07-29T10:09:18;0.85;;;0.73;;
7150;SDS011;3617;48.836;9.172;2023-07-29T10:11:46;0.95;;;0.88;;
7150;SDS011;3617;48.836;9.172;2023-07-29T10:14:14;0.93;;;0.77;;
7150;SDS011;3617;48.836;9.172;2023-07-29T10:16:41;1.10;;;0.80;;
7150;SDS011;3617;48.836;9.172;2023-07-29T10:19:10;0.70;;;0.60;;
7150;SDS011;3617;48.836;9.172;2023-07-29T10:21:38;0.82;;;0.60;;
7150;SDS011;3617;48.836;9.172;2023-07-29T10:24:06;0.95;;;0.70;;
7150;SDS011;3617;48.836;9.172;2023-07-29T10:26:35;0.70;;;0.68;;
7150;SDS011;3617;48.836;9.172;2023-07-29T10:29:04;0.75;;;0.68;;
7150;SDS011;3617;48.836;9.172;2023-07-29T10:31:30;1.10;;;0.80;;
7150;SDS011;3617;48.836;9.172;2023-07-29T10:33:57;0.63;;;0.60;;
7150;SDS011;3617;48.836;9.172;2023-07-29T10:36:23;0.70;;;0.60;;
7150;SDS011;3617;48.836;9.172;2023-07-29T10:38:50;0.90;;;0.80;;
7150;SDS011;3617;48.836;9.172;2023-07-29T10:41:15;0.80;;;0.80;;
7150;SDS011;3617;48.836;9.172;2023-07-29T10:43:41;0.60;;;0.60;;
7150;SDS011;3617;48.836;9.172;2023-07-29T10:46:17;1.20;;;0.80;;
7150;SDS011;3617;48.836;9.172;2023-07-29T10:53:51;0.93;;;0.70;;
7150;SDS011;3617;48.836;9.172;2023-07-29T10:56:24;0.90;;;0.73;;
7150;SDS011;3617;48.836;9.172;2023-07-29T10:58:51;0.85;;;0.70;;
7150;SDS011;3617;48.836;9.172;2023-07-29T11:01:27;1.00;;;0.70;;
7150;SDS011;3617;48.836;9.172;2023-07-29T11:09:38;0.80;;;0.70;;
7150;SDS011;3617;48.836;9.172;2023-07-29T11:12:05;1.38;;;0.80;;
7150;SDS011;3617;48.836;9.172;2023-07-29T11:14:31;0.75;;;0.60;;
7150;SDS011;3617;48.836;9.172;2023-07-29T11:16:57;0.90;;;0.80;;
7150;SDS011;3617;48.836;9.172;2023-07-29T11:19:23;1.08;;;0.70;;
7150;SDS011;3617;48.836;9.172;2023-07-29T11:21:49;1.30;;;0.70;;
7150;SDS011;3617;48.836;9.172;2023-07-29T11:24:17;1.30;;;0.70;;
7150;SDS011;3617;48.836;9.172;2023-07-29T11:26:47;0.60;;;0.60;;
7150;SDS011;3617;48.836;9.172;2023-07-29T11:29:13;0.82;;;0.60;;
7150;SDS011;3617;48.836;9.172;2023-07-29T11:31:39;0.95;;;0.88;;
7150;SDS011;3617;48.836;9.172;2023-07-29T11:34:06;1.10;;;0.70;;
7150;SDS011;3617;48.836;9.172;2023-07-29T11:36:32;0.80;;;0.70;;
7150;SDS011;3617;48.836;9.172;2023-07-29T11:38:58;1.75;;;0.90;;
7150;SDS011;3617;48.836;9.172;2023-07-29T11:41:24;0.88;;;0.80;;
7150;SDS011;3617;48.836;9.172;2023-07-29T11:43:50;1.58;;;0.90;;
7150;SDS011;3617;48.836;9.172;2023-07-29T11:46:20;0.77;;;0.60;;
7150;SDS011;3617;48.836;9.172;2023-07-29T11:48:46;0.68;;;0.68;;
7150;SDS011;3617;48.836;9.172;2023-07-29T11:51:12;2.05;;;0.90;;
7150;SDS011;3617;48.836;9.172;2023-07-29T11:53:38;0.90;;;0.80;;
7150;SDS011;3617;48.836;9.172;2023-07-29T11:56:04;1.25;;;1.05;;
7150;SDS011;3617;48.836;9.172;2023-07-29T11:58:30;0.60;;;0.60;;
7150;SDS011;3617;48.836;9.172;2023-07-29T12:00:57;1.17;;;0.82;;
7150;SDS011;3617;48.836;9.172;2023-07-29T12:03:23;0.95;;;0.80;;
7150;SDS011;3617;48.836;9.172;2023-07-29T12:05:49;1.80;;;0.70;;
7150;SDS011;3617;48.836;9.172;2023-07-29T12:08:15;1.05;;;0.90;;
7150;SDS011;3617;48.836;9.172;2023-07-29T12:10:41;1.13;;;0.90;;
7150;SDS011;3617;48.836;9.172;2023-07-29T12:13:07;1.52;;;0.95;;
7150;SDS011;3617;48.836;9.172;2023-07-29T12:15:34;1.02;;;0.90;;
7150;SDS011;3617;48.836;9.172;2023-07-29T12:18:00;0.90;;;0.80;;
7150;SDS011;3617;48.836;9.172;2023-07-29T12:20:26;2.60;;;1.05;;
7150;SDS011;3617;48.836;9.172;2023-07-29T12:22:53;1.13;;;0.95;;
7150;SDS011;3617;48.836;9.172;2023-07-29T12:25:19;1.30;;;1.17;;
7150;SDS011;3617;48.836;9.172;2023-07-29T12:27:46;1.00;;;0.90;;
7150;SDS011;3617;48.836;9.172;2023-07-29T12:30:12;1.60;;;1.20;;
7150;SDS011;3617;48.836;9.172;2023-07-29T12:32:44;1.25;;;1.00;;
7150;SDS011;3617;48.836;9.172;2023-07-29T12:35:11;1.30;;;1.10;;
7150;SDS011;3617;48.836;9.172;2023-07-29T12:37:37;1.00;;;0.80;;
7150;SDS011;3617;48.836;9.172;2023-07-29T12:40:07;1.58;;;1.20;;
7150;SDS011;3617;48.836;9.172;2023-07-29T12:42:33;1.40;;;0.80;;
7150;SDS011;3617;48.836;9.172;2023-07-29T12:44:59;1.45;;;1.08;;
7150;SDS011;3617;48.836;9.172;2023-07-29T12:47:25;1.30;;;0.90;;
7150;SDS011;3617;48.836;9.172;2023-07-29T12:49:51;1.20;;;1.00;;
7150;SDS011;3617;48.836;9.172;2023-07-29T12:52:17;1.50;;;1.10;;
7150;SDS011;3617;48.836;9.172;2023-07-29T12:54:43;2.22;;;0.98;;
7150;SDS011;3617;48.836;9.172;2023-07-29T12:57:09;2.67;;;0.88;;
7150;SDS011;3617;48.836;9.172;2023-07-29T12:59:36;0.98;;;0.77;;
7150;SDS011;3617;48.836;9.172;2023-07-29T13:02:02;1.05;;;0.90;;
7150;SDS011;3617;48.836;9.172;2023-07-29T13:04:28;0.80;;;0.80;;
7150;SDS011;3617;48.836;9.172;2023-07-29T13:06:54;0.95;;;0.70;;
7150;SDS011;3617;48.836;9.172;2023-07-29T13:09:21;2.35;;;0.90;;
7150;SDS011;3617;48.836;9.172;2023-07-29T13:11:47;1.10;;;0.98;;
7150;SDS011;3617;48.836;9.172;2023-07-29T13:14:13;1.30;;;1.00;;
7150;SDS011;3617;48.836;9.172;2023-07-29T13:16:39;1.20;;;0.98;;
7150;SDS011;3617;48.836;9.172;2023-07-29T13:19:05;0.77;;;0.70;;
7150;SDS011;3617;48.836;9.172;2023-07-29T13:21:31;1.08;;;0.90;;
7150;SDS011;3617;48.836;9.172;2023-07-29T13:23:57;0.77;;;0.77;;
7150;SDS011;3617;48.836;9.172;2023-07-29T13:26:23;0.80;;;0.80;;
7150;SDS011;3617;48.836;9.172;2023-07-29T13:28:49;1.45;;;1.00;;
7150;SDS011;3617;48.836;9.172;2023-07-29T13:31:15;1.30;;;1.00;;
7150;SDS011;3617;48.836;9.172;2023-07-29T13:33:41;1.55;;;1.05;;
7150;SDS011;3617;48.836;9.172;2023-07-29T13:36:07;1.30;;;1.00;;
7150;SDS011;3617;48.836;9.172;2023-07-29T13:38:33;0.95;;;0.90;;
7150;SDS011;3617;48.836;9.172;2023-07-29T13:40:59;1.65;;;1.20;;
7150;SDS011;3617;48.836;9.172;2023-07-29T13:43:25;1.27;;;0.95;;
7150;SDS011;3617;48.836;9.172;2023-07-29T13:45:51;1.27;;;1.00;;
7150;SDS011;3617;48.836;9.172;2023-07-29T13:48:17;1.20;;;0.98;;
7150;SDS011;3617;48.836;9.172;2023-07-29T13:50:43;1.30;;;1.00;;
7150;SDS011;3617;48.836;9.172;2023-07-29T13:53:10;1.42;;;1.00;;
7150;SDS011;3617;48.836;9.172;2023-07-29T13:55:36;1.20;;;1.08;;
7150;SDS011;3617;48.836;9.172;2023-07-29T13:58:02;1.52;;;1.15;;
7150;SDS011;3617;48.836;9.172;2023-07-29T14:00:28;1.38;;;1.13;;
7150;SDS011;3617;48.836;9.172;2023-07-29T14:02:54;0.93;;;0.80;;
7150;SDS011;3617;48.836;9.172;2023-07-29T14:05:20;1.42;;;0.98;;
7150;SDS011;3617;48.836;9.172;2023-07-29T14:07:46;1.77;;;1.08;;
7150;SDS011;3617;48.836;9.172;2023-07-29T14:10:12;0.80;;;0.70;;
7150;SDS011;3617;48.836;9.172;2023-07-29T14:12:38;1.83;;;0.90;;
7150;SDS011;3617;48.836;9.172;2023-07-29T14:15:04;0.93;;;0.80;;
7150;SDS011;3617;48.836;9.172;2023-07-29T14:17:31;2.80;;;0.82;;
7150;SDS011;3617;48.836;9.172;2023-07-29T14:19:57;1.20;;;0.75;;
7150;SDS011;3617;48.836;9.172;2023-07-29T14:22:23;3.50;;;0.98;;
7150;SDS011;3617;48.836;9.172;2023-07-29T14:24:49;1.50;;;0.98;;
7150;SDS011;3617;48.836;9.172;2023-07-29T14:27:15;3.17;;;1.15;;
7150;SDS011;3617;48.836;9.172;2023-07-29T14:29:41;1.75;;;0.88;;
7150;SDS011;3617;48.836;9.172;2023-07-29T14:32:07;1.15;;;0.93;;
7150;SDS011;3617;48.836;9.172;2023-07-29T14:34:33;0.93;;;0.90;;
7150;SDS011;3617;48.836;9.172;2023-07-29T14:36:59;1.10;;;0.95;;
7150;SDS011;3617;48.836;9.172;2023-07-29T14:39:25;1.00;;;0.90;;
7150;SDS011;3617;48.836;9.172;2023-07-29T14:41:51;1.88;;;0.95;;
7150;SDS011;3617;48.836;9.172;2023-07-29T14:44:17;1.52;;;1.02;;
7150;SDS011;3617;48.836;9.172;2023-07-29T14:46:43;1.92;;;1.20;;
7150;SDS011;3617;48.836;9.172;2023-07-29T14:49:09;2.72;;;1.23;;
7150;SDS011;3617;48.836;9.172;2023-07-29T14:51:35;1.63;;;1.10;;
7150;SDS011;3617;48.836;9.172;2023-07-29T14:54:02;1.05;;;0.88;;
7150;SDS011;3617;48.836;9.172;2023-07-29T14:56:28;1.38;;;0.90;;
7150;SDS011;3617;48.836;9.172;2023-07-29T14:58:54;1.85;;;0.90;;
7150;SDS011;3617;48.836;9.172;2023-07-29T15:01:20;1.58;;;1.00;;
7150;SDS011;3617;48.836;9.172;2023-07-29T15:03:46;1.08;;;0.90;;
7150;SDS011;3617;48.836;9.172;2023-07-29T15:06:12;1.33;;;0.90;;
7150;SDS011;3617;48.836;9.172;2023-07-29T15:08:38;1.20;;;0.90;;
7150;SDS011;3617;48.836;9.172;2023-07-29T15:11:04;0.90;;;0.85;;
7150;SDS011;3617;48.836;9.172;2023-07-29T15:13:30;1.83;;;0.88;;
7150;SDS011;3617;48.836;9.172;2023-07-29T15:15:56;0.98;;;0.80;;
7150;SDS011;3617;48.836;9.172;2023-07-29T15:18:22;1.70;;;0.95;;
7150;SDS011;3617;48.836;9.172;2023-07-29T15:20:48;1.85;;;1.00;;
7150;SDS011;3617;48.836;9.172;2023-07-29T15:23:14;0.77;;;0.70;;
7150;SDS011;3617;48.836;9.172;2023-07-29T15:25:40;1.17;;;1.00;;